sensor_id;sensor_type;location;lat;lon;timestamp;temperature;humidity
41876;DHT22;27555;50.808;4.402;2022-09-09T00:03:53;16.80;99.90
41876;DHT22;27555;50.808;4.402;2022-09-09T00:06:24;16.80;99.90
41876;DHT22;27555;50.808;4.402;2022-09-09T00:09:08;16.90;99.90
41876;DHT22;27555;50.808;4.402;2022-09-09T00:11:52;16.80;99.90
41876;DHT22;27555;50.808;4.402;2022-09-09T00:14:51;16.70;99.90
41876;DHT22;27555;50.808;4.402;2022-09-09T00:20:14;16.60;99.90
41876;DHT22;27555;50.808;4.402;2022-09-09T00:25:37;16.60;99.90
41876;DHT22;27555;50.808;4.402;2022-09-09T00:28:17;16.70;99.90
41876;DHT22;27555;50.808;4.402;2022-09-09T00:30:43;16.60;99.90
41876;DHT22;27555;50.808;4.402;2022-09-09T00:33:15;16.70;99.90
41876;DHT22;27555;50.808;4.402;2022-09-09T00:35:49;16.70;99.90
41876;DHT22;27555;50.808;4.402;2022-09-09T00:40:51;16.80;99.90
41876;DHT22;27555;50.808;4.402;2022-09-09T00:43:40;16.80;99.90
41876;DHT22;27555;50.808;4.402;2022-09-09T00:59:54;16.70;99.90
41876;DHT22;27555;50.808;4.402;2022-09-09T01:02:35;16.70;99.90
41876;DHT22;27555;50.808;4.402;2022-09-09T01:05:27;16.60;99.90
41876;DHT22;27555;50.808;4.402;2022-09-09T01:07:58;16.60;99.90
41876;DHT22;27555;50.808;4.402;2022-09-09T01:10:41;16.80;99.90
41876;DHT22;27555;50.808;4.402;2022-09-09T01:13:19;16.80;99.90
41876;DHT22;27555;50.808;4.402;2022-09-09T01:15:48;16.80;99.90
41876;DHT22;27555;50.808;4.402;2022-09-09T01:18:17;16.80;99.90
41876;DHT22;27555;50.808;4.402;2022-09-09T01:21:13;16.90;99.90
41876;DHT22;27555;50.808;4.402;2022-09-09T01:24:15;16.90;99.90
41876;DHT22;27555;50.808;4.402;2022-09-09T01:26:45;16.80;99.90
41876;DHT22;27555;50.808;4.402;2022-09-09T01:29:16;16.80;99.90
41876;DHT22;27555;50.808;4.402;2022-09-09T01:34:25;16.80;99.90
41876;DHT22;27555;50.808;4.402;2022-09-09T01:36:58;16.80;99.90
41876;DHT22;27555;50.808;4.402;2022-09-09T01:39:24;16.80;99.90
41876;DHT22;27555;50.808;4.402;2022-09-09T01:41:51;16.60;99.90
41876;DHT22;27555;50.808;4.402;2022-09-09T01:44:18;16.50;99.90
41876;DHT22;27555;50.808;4.402;2022-09-09T01:46:45;16.40;99.90
41876;DHT22;27555;50.808;4.402;2022-09-09T01:49:10;16.40;99.90
41876;DHT22;27555;50.808;4.402;2022-09-09T01:51:39;16.60;99.90
41876;DHT22;27555;50.808;4.402;2022-09-09T01:54:06;16.70;99.90
41876;DHT22;27555;50.808;4.402;2022-09-09T01:59:23;16.60;99.90
41876;DHT22;27555;50.808;4.402;2022-09-09T02:02:02;16.50;99.90
41876;DHT22;27555;50.808;4.402;2022-09-09T02:05:05;16.50;99.90
41876;DHT22;27555;50.808;4.402;2022-09-09T02:07:50;16.40;99.90
41876;DHT22;27555;50.808;4.402;2022-09-09T02:10:28;16.30;99.90
41876;DHT22;27555;50.808;4.402;2022-09-09T02:13:13;16.30;99.90
41876;DHT22;27555;50.808;4.402;2022-09-09T02:16:03;16.20;99.90
41876;DHT22;27555;50.808;4.402;2022-09-09T02:21:07;16.30;99.90
41876;DHT22;27555;50.808;4.402;2022-09-09T02:23:34;16.30;99.90
41876;DHT22;27555;50.808;4.402;2022-09-09T02:26:00;16.30;99.90
41876;DHT22;27555;50.808;4.402;2022-09-09T02:28:31;16.20;99.90
41876;DHT22;27555;50.808;4.402;2022-09-09T02:30:57;16.20;99.90
41876;DHT22;27555;50.808;4.402;2022-09-09T02:33:26;16.20;99.90
41876;DHT22;27555;50.808;4.402;2022-09-09T02:35:53;16.20;99.90
41876;DHT22;27555;50.808;4.402;2022-09-09T02:38:26;16.20;99.90
41876;DHT22;27555;50.808;4.402;2022-09-09T02:40:54;16.20;99.90
41876;DHT22;27555;50.808;4.402;2022-09-09T02:43:19;16.20;99.90
41876;DHT22;27555;50.808;4.402;2022-09-09T02:51:18;16.40;99.90
41876;DHT22;27555;50.808;4.402;2022-09-09T02:54:03;16.40;99.90
41876;DHT22;27555;50.808;4.402;2022-09-09T02:56:33;16.30;99.90
41876;DHT22;27555;50.808;4.402;2022-09-09T02:59:04;16.40;99.90
41876;DHT22;27555;50.808;4.402;2022-09-09T03:01:31;16.40;99.90
41876;DHT22;27555;50.808;4.402;2022-09-09T03:03:57;16.50;99.90
41876;DHT22;27555;50.808;4.402;2022-09-09T03:06:23;16.50;99.90
41876;DHT22;27555;50.808;4.402;2022-09-09T03:08:50;16.50;99.90
41876;DHT22;27555;50.808;4.402;2022-09-09T03:11:17;16.50;99.90
41876;DHT22;27555;50.808;4.402;2022-09-09T03:13:42;16.40;99.90
41876;DHT22;27555;50.808;4.402;2022-09-09T03:16:08;16.50;99.90
41876;DHT22;27555;50.808;4.402;2022-09-09T03:18:34;16.40;99.90
41876;DHT22;27555;50.808;4.402;2022-09-09T03:21:00;16.50;99.90
41876;DHT22;27555;50.808;4.402;2022-09-09T03:23:28;16.40;99.90
41876;DHT22;27555;50.808;4.402;2022-09-09T03:25:54;16.30;99.90
41876;DHT22;27555;50.808;4.402;2022-09-09T03:28:22;16.20;99.90
41876;DHT22;27555;50.808;4.402;2022-09-09T03:30:48;16.10;99.90
41876;DHT22;27555;50.808;4.402;2022-09-09T03:33:16;16.10;99.90
41876;DHT22;27555;50.808;4.402;2022-09-09T03:35:46;16.10;99.90
41876;DHT22;27555;50.808;4.402;2022-09-09T03:38:12;16.20;99.90
41876;DHT22;27555;50.808;4.402;2022-09-09T03:40:38;16.20;99.90
41876;DHT22;27555;50.808;4.402;2022-09-09T03:43:05;16.20;99.90
41876;DHT22;27555;50.808;4.402;2022-09-09T03:45:32;16.10;99.90
41876;DHT22;27555;50.808;4.402;2022-09-09T03:47:58;16.10;99.90
41876;DHT22;27555;50.808;4.402;2022-09-09T03:50:23;16.00;99.90
41876;DHT22;27555;50.808;4.402;2022-09-09T03:52:49;15.90;99.90
41876;DHT22;27555;50.808;4.402;2022-09-09T03:55:15;15.90;99.90
41876;DHT22;27555;50.808;4.402;2022-09-09T03:57:41;16.00;99.90
41876;DHT22;27555;50.808;4.402;2022-09-09T04:00:07;16.00;99.90
41876;DHT22;27555;50.808;4.402;2022-09-09T04:02:33;16.10;99.90
41876;DHT22;27555;50.808;4.402;2022-09-09T04:05:00;16.10;99.90
41876;DHT22;27555;50.808;4.402;2022-09-09T04:07:26;16.20;99.90
41876;DHT22;27555;50.808;4.402;2022-09-09T04:09:53;16.20;99.90
41876;DHT22;27555;50.808;4.402;2022-09-09T04:12:20;16.20;99.90
41876;DHT22;27555;50.808;4.402;2022-09-09T04:14:46;16.20;99.90
41876;DHT22;27555;50.808;4.402;2022-09-09T04:17:12;16.20;99.90
41876;DHT22;27555;50.808;4.402;2022-09-09T04:19:37;16.20;99.90
41876;DHT22;27555;50.808;4.402;2022-09-09T04:22:03;16.20;99.90
41876;DHT22;27555;50.808;4.402;2022-09-09T04:24:29;16.20;99.90
41876;DHT22;27555;50.808;4.402;2022-09-09T04:26:55;16.20;99.90
41876;DHT22;27555;50.808;4.402;2022-09-09T04:29:22;16.20;99.90
41876;DHT22;27555;50.808;4.402;2022-09-09T04:31:49;16.20;99.90
41876;DHT22;27555;50.808;4.402;2022-09-09T04:34:18;16.10;99.90
41876;DHT22;27555;50.808;4.402;2022-09-09T04:36:48;16.00;99.90
41876;DHT22;27555;50.808;4.402;2022-09-09T04:39:18;15.90;99.90
41876;DHT22;27555;50.808;4.402;2022-09-09T04:41:44;15.70;99.90
41876;DHT22;27555;50.808;4.402;2022-09-09T04:44:10;15.60;99.90
41876;DHT22;27555;50.808;4.402;2022-09-09T04:46:36;15.50;99.90
41876;DHT22;27555;50.808;4.402;2022-09-09T04:49:02;15.70;99.90
41876;DHT22;27555;50.808;4.402;2022-09-09T04:51:27;15.70;99.90
41876;DHT22;27555;50.808;4.402;2022-09-09T04:53:55;15.70;99.90
41876;DHT22;27555;50.808;4.402;2022-09-09T04:56:20;15.70;99.90
41876;DHT22;27555;50.808;4.402;2022-09-09T04:58:48;15.70;99.90
41876;DHT22;27555;50.808;4.402;2022-09-09T05:01:18;15.60;99.90
41876;DHT22;27555;50.808;4.402;2022-09-09T05:03:45;15.60;99.90
41876;DHT22;27555;50.808;4.402;2022-09-09T05:06:13;15.60;99.90
41876;DHT22;27555;50.808;4.402;2022-09-09T05:08:41;15.60;99.90
41876;DHT22;27555;50.808;4.402;2022-09-09T05:11:37;15.60;99.90
41876;DHT22;27555;50.808;4.402;2022-09-09T05:14:04;15.60;99.90
41876;DHT22;27555;50.808;4.402;2022-09-09T05:16:30;15.60;99.90
41876;DHT22;27555;50.808;4.402;2022-09-09T05:18:56;15.50;99.90
41876;DHT22;27555;50.808;4.402;2022-09-09T05:21:25;15.50;99.90
41876;DHT22;27555;50.808;4.402;2022-09-09T05:23:52;15.60;99.90
41876;DHT22;27555;50.808;4.402;2022-09-09T05:26:20;15.70;99.90
41876;DHT22;27555;50.808;4.402;2022-09-09T05:28:47;15.90;99.90
41876;DHT22;27555;50.808;4.402;2022-09-09T05:31:14;15.90;99.90
41876;DHT22;27555;50.808;4.402;2022-09-09T05:33:41;16.10;99.90
41876;DHT22;27555;50.808;4.402;2022-09-09T05:36:10;16.20;99.90
41876;DHT22;27555;50.808;4.402;2022-09-09T05:38:38;16.30;99.90
41876;DHT22;27555;50.808;4.402;2022-09-09T05:41:04;16.20;99.90
41876;DHT22;27555;50.808;4.402;2022-09-09T05:43:30;16.20;99.90
41876;DHT22;27555;50.808;4.402;2022-09-09T05:46:09;16.30;99.90
41876;DHT22;27555;50.808;4.402;2022-09-09T05:48:37;16.30;99.90
41876;DHT22;27555;50.808;4.402;2022-09-09T05:51:04;16.20;99.90
41876;DHT22;27555;50.808;4.402;2022-09-09T05:53:30;16.20;99.90
41876;DHT22;27555;50.808;4.402;2022-09-09T05:56:04;16.20;99.90
41876;DHT22;27555;50.808;4.402;2022-09-09T05:58:31;16.20;99.90
41876;DHT22;27555;50.808;4.402;2022-09-09T06:03:29;16.20;99.90
41876;DHT22;27555;50.808;4.402;2022-09-09T06:06:03;16.20;99.90
41876;DHT22;27555;50.808;4.402;2022-09-09T06:08:31;16.30;99.90
41876;DHT22;27555;50.808;4.402;2022-09-09T06:11:11;16.40;99.90
41876;DHT22;27555;50.808;4.402;2022-09-09T06:13:38;16.20;99.90
41876;DHT22;27555;50.808;4.402;2022-09-09T06:16:14;16.30;99.90
41876;DHT22;27555;50.808;4.402;2022-09-09T06:18:41;16.50;99.90
41876;DHT22;27555;50.808;4.402;2022-09-09T06:21:11;16.60;99.90
41876;DHT22;27555;50.808;4.402;2022-09-09T06:23:39;16.70;99.90
41876;DHT22;27555;50.808;4.402;2022-09-09T06:26:19;16.80;99.90
41876;DHT22;27555;50.808;4.402;2022-09-09T06:28:47;16.80;99.90
41876;DHT22;27555;50.808;4.402;2022-09-09T06:31:15;16.70;99.90
41876;DHT22;27555;50.808;4.402;2022-09-09T06:33:43;16.90;99.90
41876;DHT22;27555;50.808;4.402;2022-09-09T06:36:15;17.10;99.90
41876;DHT22;27555;50.808;4.402;2022-09-09T06:38:41;17.20;99.90
41876;DHT22;27555;50.808;4.402;2022-09-09T06:41:08;17.20;99.90
41876;DHT22;27555;50.808;4.402;2022-09-09T06:43:34;17.30;99.90
41876;DHT22;27555;50.808;4.402;2022-09-09T06:46:10;17.40;99.90
41876;DHT22;27555;50.808;4.402;2022-09-09T06:48:36;17.30;99.90
41876;DHT22;27555;50.808;4.402;2022-09-09T06:51:07;17.40;99.90
41876;DHT22;27555;50.808;4.402;2022-09-09T06:53:35;17.40;99.90
41876;DHT22;27555;50.808;4.402;2022-09-09T06:58:40;17.20;99.90
41876;DHT22;27555;50.808;4.402;2022-09-09T07:01:13;17.20;99.90
41876;DHT22;27555;50.808;4.402;2022-09-09T07:03:40;17.50;99.90
41876;DHT22;27555;50.808;4.402;2022-09-09T07:06:06;17.70;99.90
41876;DHT22;27555;50.808;4.402;2022-09-09T07:08:33;17.70;99.90
41876;DHT22;27555;50.808;4.402;2022-09-09T07:11:03;17.60;99.90
41876;DHT22;27555;50.808;4.402;2022-09-09T07:13:32;17.50;99.90
41876;DHT22;27555;50.808;4.402;2022-09-09T07:16:09;17.40;99.90
41876;DHT22;27555;50.808;4.402;2022-09-09T07:18:35;17.40;99.90
41876;DHT22;27555;50.808;4.402;2022-09-09T07:21:02;17.40;99.90
41876;DHT22;27555;50.808;4.402;2022-09-09T07:23:29;17.40;99.90
41876;DHT22;27555;50.808;4.402;2022-09-09T07:25:55;17.50;99.90
41876;DHT22;27555;50.808;4.402;2022-09-09T07:28:21;17.30;99.90
41876;DHT22;27555;50.808;4.402;2022-09-09T07:30:59;17.20;99.90
41876;DHT22;27555;50.808;4.402;2022-09-09T07:33:25;17.10;99.90
41876;DHT22;27555;50.808;4.402;2022-09-09T07:35:51;17.10;99.90
41876;DHT22;27555;50.808;4.402;2022-09-09T07:38:18;17.10;99.90
41876;DHT22;27555;50.808;4.402;2022-09-09T07:40:44;17.10;99.90
41876;DHT22;27555;50.808;4.402;2022-09-09T07:43:10;17.10;99.90
41876;DHT22;27555;50.808;4.402;2022-09-09T07:45:36;17.00;99.90
41876;DHT22;27555;50.808;4.402;2022-09-09T07:48:03;16.90;99.90
41876;DHT22;27555;50.808;4.402;2022-09-09T07:50:29;16.70;99.90
41876;DHT22;27555;50.808;4.402;2022-09-09T07:52:55;16.70;99.90
41876;DHT22;27555;50.808;4.402;2022-09-09T07:55:22;16.60;99.90
41876;DHT22;27555;50.808;4.402;2022-09-09T07:57:51;16.60;99.90
41876;DHT22;27555;50.808;4.402;2022-09-09T08:00:17;16.70;99.90
41876;DHT22;27555;50.808;4.402;2022-09-09T08:02:44;16.70;99.90
41876;DHT22;27555;50.808;4.402;2022-09-09T08:05:09;17.00;99.90
41876;DHT22;27555;50.808;4.402;2022-09-09T08:07:35;17.30;99.90
41876;DHT22;27555;50.808;4.402;2022-09-09T08:10:01;18.00;99.90
41876;DHT22;27555;50.808;4.402;2022-09-09T08:12:27;18.90;99.90
41876;DHT22;27555;50.808;4.402;2022-09-09T08:14:53;18.90;99.90
41876;DHT22;27555;50.808;4.402;2022-09-09T08:17:19;19.40;99.90
41876;DHT22;27555;50.808;4.402;2022-09-09T08:19:45;20.60;99.90
41876;DHT22;27555;50.808;4.402;2022-09-09T08:22:11;20.60;99.90
41876;DHT22;27555;50.808;4.402;2022-09-09T08:24:36;20.40;99.90
41876;DHT22;27555;50.808;4.402;2022-09-09T08:27:02;20.00;99.90
41876;DHT22;27555;50.808;4.402;2022-09-09T08:29:28;19.70;99.90
41876;DHT22;27555;50.808;4.402;2022-09-09T08:31:58;19.80;99.90
41876;DHT22;27555;50.808;4.402;2022-09-09T08:34:24;19.50;99.90
41876;DHT22;27555;50.808;4.402;2022-09-09T08:36:52;19.20;99.90
41876;DHT22;27555;50.808;4.402;2022-09-09T08:39:20;19.00;99.90
41876;DHT22;27555;50.808;4.402;2022-09-09T08:42:17;18.90;99.90
41876;DHT22;27555;50.808;4.402;2022-09-09T08:50:39;18.30;99.90
41876;DHT22;27555;50.808;4.402;2022-09-09T08:53:27;18.10;99.90
41876;DHT22;27555;50.808;4.402;2022-09-09T08:55:59;17.90;99.90
41876;DHT22;27555;50.808;4.402;2022-09-09T08:58:27;18.00;99.90
41876;DHT22;27555;50.808;4.402;2022-09-09T09:09:29;17.90;99.90
41876;DHT22;27555;50.808;4.402;2022-09-09T09:12:01;17.80;99.90
41876;DHT22;27555;50.808;4.402;2022-09-09T09:14:29;17.70;99.90
41876;DHT22;27555;50.808;4.402;2022-09-09T09:17:04;17.70;99.90
41876;DHT22;27555;50.808;4.402;2022-09-09T09:19:33;17.80;99.90
41876;DHT22;27555;50.808;4.402;2022-09-09T09:22:21;17.80;99.90
41876;DHT22;27555;50.808;4.402;2022-09-09T09:28:13;17.80;99.90
41876;DHT22;27555;50.808;4.402;2022-09-09T09:31:09;17.90;99.90
41876;DHT22;27555;50.808;4.402;2022-09-09T09:33:55;17.70;99.90
41876;DHT22;27555;50.808;4.402;2022-09-09T09:36:33;17.50;99.90
41876;DHT22;27555;50.808;4.402;2022-09-09T09:39:01;17.50;99.90
41876;DHT22;27555;50.808;4.402;2022-09-09T09:41:39;17.40;99.90
41876;DHT22;27555;50.808;4.402;2022-09-09T09:44:19;17.40;99.90
41876;DHT22;27555;50.808;4.402;2022-09-09T09:46:47;17.40;99.90
41876;DHT22;27555;50.808;4.402;2022-09-09T09:49:12;17.60;99.90
41876;DHT22;27555;50.808;4.402;2022-09-09T09:51:39;17.60;99.90
41876;DHT22;27555;50.808;4.402;2022-09-09T09:54:19;17.40;99.90
41876;DHT22;27555;50.808;4.402;2022-09-09T09:56:48;17.30;99.90
41876;DHT22;27555;50.808;4.402;2022-09-09T10:01:54;17.60;99.90
41876;DHT22;27555;50.808;4.402;2022-09-09T10:04:22;17.70;99.90
41876;DHT22;27555;50.808;4.402;2022-09-09T10:06:49;17.70;99.90
41876;DHT22;27555;50.808;4.402;2022-09-09T10:09:26;17.70;99.90
41876;DHT22;27555;50.808;4.402;2022-09-09T10:14:49;17.70;99.90
41876;DHT22;27555;50.808;4.402;2022-09-09T10:34:09;17.70;99.90
41876;DHT22;27555;50.808;4.402;2022-09-09T10:36:43;17.70;99.90
41876;DHT22;27555;50.808;4.402;2022-09-09T10:39:35;18.00;99.90
41876;DHT22;27555;50.808;4.402;2022-09-09T10:42:14;18.30;99.90
41876;DHT22;27555;50.808;4.402;2022-09-09T10:47:35;18.30;99.90
41876;DHT22;27555;50.808;4.402;2022-09-09T10:53:28;18.60;99.90
41876;DHT22;27555;50.808;4.402;2022-09-09T10:56:07;18.80;99.90
41876;DHT22;27555;50.808;4.402;2022-09-09T10:58:59;18.90;99.90
41876;DHT22;27555;50.808;4.402;2022-09-09T11:01:30;19.10;99.90
41876;DHT22;27555;50.808;4.402;2022-09-09T11:04:05;19.30;99.90
41876;DHT22;27555;50.808;4.402;2022-09-09T11:06:41;19.70;99.90
41876;DHT22;27555;50.808;4.402;2022-09-09T11:09:15;19.70;99.90
41876;DHT22;27555;50.808;4.402;2022-09-09T11:11:50;19.60;99.90
41876;DHT22;27555;50.808;4.402;2022-09-09T11:14:30;19.50;99.90
41876;DHT22;27555;50.808;4.402;2022-09-09T11:17:12;19.60;99.90
41876;DHT22;27555;50.808;4.402;2022-09-09T11:19:59;19.80;99.90
41876;DHT22;27555;50.808;4.402;2022-09-09T11:22:37;20.20;99.90
41876;DHT22;27555;50.808;4.402;2022-09-09T11:26:27;20.30;99.90
41876;DHT22;27555;50.808;4.402;2022-09-09T11:38:56;19.80;99.90
41876;DHT22;27555;50.808;4.402;2022-09-09T11:41:36;19.60;99.90
41876;DHT22;27555;50.808;4.402;2022-09-09T11:44:18;19.70;99.90
41876;DHT22;27555;50.808;4.402;2022-09-09T11:46:49;19.60;99.90
41876;DHT22;27555;50.808;4.402;2022-09-09T11:52:13;19.80;99.90
41876;DHT22;27555;50.808;4.402;2022-09-09T11:54:48;19.90;99.90
41876;DHT22;27555;50.808;4.402;2022-09-09T11:57:25;19.90;99.90
41876;DHT22;27555;50.808;4.402;2022-09-09T11:59:52;20.00;99.90
41876;DHT22;27555;50.808;4.402;2022-09-09T12:02:20;19.90;99.90
41876;DHT22;27555;50.808;4.402;2022-09-09T12:05:06;19.90;99.90
41876;DHT22;27555;50.808;4.402;2022-09-09T12:07:54;19.90;99.90
41876;DHT22;27555;50.808;4.402;2022-09-09T12:10:33;20.00;99.90
41876;DHT22;27555;50.808;4.402;2022-09-09T12:13:28;20.10;99.90
41876;DHT22;27555;50.808;4.402;2022-09-09T12:15:56;20.00;99.90
41876;DHT22;27555;50.808;4.402;2022-09-09T12:18:32;19.60;99.90
41876;DHT22;27555;50.808;4.402;2022-09-09T12:23:52;19.50;99.90
41876;DHT22;27555;50.808;4.402;2022-09-09T12:26:43;19.20;99.90
41876;DHT22;27555;50.808;4.402;2022-09-09T12:29:41;19.30;99.90
41876;DHT22;27555;50.808;4.402;2022-09-09T12:32:16;19.60;99.90
41876;DHT22;27555;50.808;4.402;2022-09-09T12:39:56;20.20;99.90
41876;DHT22;27555;50.808;4.402;2022-09-09T12:42:23;20.40;99.90
41876;DHT22;27555;50.808;4.402;2022-09-09T12:44:54;20.50;99.90
41876;DHT22;27555;50.808;4.402;2022-09-09T12:47:26;20.50;99.90
41876;DHT22;27555;50.808;4.402;2022-09-09T12:49:52;20.80;99.90
41876;DHT22;27555;50.808;4.402;2022-09-09T12:52:29;20.80;99.90
41876;DHT22;27555;50.808;4.402;2022-09-09T12:54:59;20.90;99.90
41876;DHT22;27555;50.808;4.402;2022-09-09T12:57:32;21.10;99.90
41876;DHT22;27555;50.808;4.402;2022-09-09T13:00:18;21.10;99.90
41876;DHT22;27555;50.808;4.402;2022-09-09T13:03:00;20.90;99.90
41876;DHT22;27555;50.808;4.402;2022-09-09T13:05:37;20.70;99.90
41876;DHT22;27555;50.808;4.402;2022-09-09T13:08:11;20.50;99.90
41876;DHT22;27555;50.808;4.402;2022-09-09T13:11:00;20.60;99.90
41876;DHT22;27555;50.808;4.402;2022-09-09T13:13:37;20.70;99.90
41876;DHT22;27555;50.808;4.402;2022-09-09T13:16:06;21.00;99.90
41876;DHT22;27555;50.808;4.402;2022-09-09T13:18:39;21.10;99.90
41876;DHT22;27555;50.808;4.402;2022-09-09T13:21:05;21.40;99.90
41876;DHT22;27555;50.808;4.402;2022-09-09T13:23:33;21.20;99.90
41876;DHT22;27555;50.808;4.402;2022-09-09T13:26:06;20.80;99.90
41876;DHT22;27555;50.808;4.402;2022-09-09T13:28:33;20.90;99.90
41876;DHT22;27555;50.808;4.402;2022-09-09T13:33:36;21.10;99.90
41876;DHT22;27555;50.808;4.402;2022-09-09T13:36:09;21.30;99.90
41876;DHT22;27555;50.808;4.402;2022-09-09T13:41:25;21.30;99.90
41876;DHT22;27555;50.808;4.402;2022-09-09T13:43:54;21.20;99.90
41876;DHT22;27555;50.808;4.402;2022-09-09T13:46:40;21.30;99.90
41876;DHT22;27555;50.808;4.402;2022-09-09T13:51:37;21.40;99.90
41876;DHT22;27555;50.808;4.402;2022-09-09T13:54:04;21.80;99.90
41876;DHT22;27555;50.808;4.402;2022-09-09T13:56:35;22.10;99.90
41876;DHT22;27555;50.808;4.402;2022-09-09T13:59:02;21.90;99.90
41876;DHT22;27555;50.808;4.402;2022-09-09T14:01:28;21.70;99.90
41876;DHT22;27555;50.808;4.402;2022-09-09T14:03:54;21.40;99.90
41876;DHT22;27555;50.808;4.402;2022-09-09T14:06:20;21.30;99.90
41876;DHT22;27555;50.808;4.402;2022-09-09T14:08:47;21.20;99.90
41876;DHT22;27555;50.808;4.402;2022-09-09T14:11:14;21.20;99.90
41876;DHT22;27555;50.808;4.402;2022-09-09T14:13:40;21.40;99.90
41876;DHT22;27555;50.808;4.402;2022-09-09T14:16:06;21.70;99.90
41876;DHT22;27555;50.808;4.402;2022-09-09T14:18:32;21.80;99.90
41876;DHT22;27555;50.808;4.402;2022-09-09T14:20:57;21.50;99.90
41876;DHT22;27555;50.808;4.402;2022-09-09T14:23:24;21.50;99.90
41876;DHT22;27555;50.808;4.402;2022-09-09T14:25:50;21.60;99.90
41876;DHT22;27555;50.808;4.402;2022-09-09T14:28:16;21.40;99.90
41876;DHT22;27555;50.808;4.402;2022-09-09T14:30:43;21.40;99.90
41876;DHT22;27555;50.808;4.402;2022-09-09T14:33:11;21.40;99.90
41876;DHT22;27555;50.808;4.402;2022-09-09T14:35:38;21.50;99.90
41876;DHT22;27555;50.808;4.402;2022-09-09T14:38:04;21.40;99.90
41876;DHT22;27555;50.808;4.402;2022-09-09T14:40:30;21.50;99.90
41876;DHT22;27555;50.808;4.402;2022-09-09T14:42:56;21.60;99.90
41876;DHT22;27555;50.808;4.402;2022-09-09T14:45:22;21.70;99.90
41876;DHT22;27555;50.808;4.402;2022-09-09T14:47:50;21.60;99.90
41876;DHT22;27555;50.808;4.402;2022-09-09T14:50:17;21.60;99.90
41876;DHT22;27555;50.808;4.402;2022-09-09T14:52:43;21.80;99.90
41876;DHT22;27555;50.808;4.402;2022-09-09T14:55:09;21.80;99.90
41876;DHT22;27555;50.808;4.402;2022-09-09T14:57:35;21.80;99.90
41876;DHT22;27555;50.808;4.402;2022-09-09T15:00:02;21.80;99.90
41876;DHT22;27555;50.808;4.402;2022-09-09T15:02:29;21.60;99.90
41876;DHT22;27555;50.808;4.402;2022-09-09T15:04:55;21.40;99.90
41876;DHT22;27555;50.808;4.402;2022-09-09T15:07:24;21.30;99.90
41876;DHT22;27555;50.808;4.402;2022-09-09T15:09:49;21.20;99.90
41876;DHT22;27555;50.808;4.402;2022-09-09T15:12:15;21.00;99.90
41876;DHT22;27555;50.808;4.402;2022-09-09T15:14:44;20.90;99.90
41876;DHT22;27555;50.808;4.402;2022-09-09T15:17:10;20.90;99.90
41876;DHT22;27555;50.808;4.402;2022-09-09T15:19:35;21.30;99.90
41876;DHT22;27555;50.808;4.402;2022-09-09T15:22:02;21.50;99.90
41876;DHT22;27555;50.808;4.402;2022-09-09T15:24:28;21.60;99.90
41876;DHT22;27555;50.808;4.402;2022-09-09T15:26:54;21.70;99.90
41876;DHT22;27555;50.808;4.402;2022-09-09T15:29:19;21.70;99.90
41876;DHT22;27555;50.808;4.402;2022-09-09T15:31:45;21.80;99.90
41876;DHT22;27555;50.808;4.402;2022-09-09T15:34:12;21.80;99.90
41876;DHT22;27555;50.808;4.402;2022-09-09T15:36:43;21.70;99.90
41876;DHT22;27555;50.808;4.402;2022-09-09T15:39:14;21.40;99.90
41876;DHT22;27555;50.808;4.402;2022-09-09T15:41:45;21.30;99.90
41876;DHT22;27555;50.808;4.402;2022-09-09T15:44:11;21.10;99.90
41876;DHT22;27555;50.808;4.402;2022-09-09T15:46:45;21.00;99.90
41876;DHT22;27555;50.808;4.402;2022-09-09T15:49:18;20.90;99.90
41876;DHT22;27555;50.808;4.402;2022-09-09T15:51:47;21.10;99.90
41876;DHT22;27555;50.808;4.402;2022-09-09T15:54:14;21.00;99.90
41876;DHT22;27555;50.808;4.402;2022-09-09T15:56:42;20.90;99.90
41876;DHT22;27555;50.808;4.402;2022-09-09T15:59:07;20.90;99.90
41876;DHT22;27555;50.808;4.402;2022-09-09T16:01:33;20.90;99.90
41876;DHT22;27555;50.808;4.402;2022-09-09T16:03:59;20.90;99.90
41876;DHT22;27555;50.808;4.402;2022-09-09T16:06:25;20.90;99.90
41876;DHT22;27555;50.808;4.402;2022-09-09T16:08:54;21.00;99.90
41876;DHT22;27555;50.808;4.402;2022-09-09T16:11:22;20.70;99.90
41876;DHT22;27555;50.808;4.402;2022-09-09T16:13:51;20.60;99.90
41876;DHT22;27555;50.808;4.402;2022-09-09T16:16:20;20.60;99.90
41876;DHT22;27555;50.808;4.402;2022-09-09T16:18:48;20.80;99.90
41876;DHT22;27555;50.808;4.402;2022-09-09T16:21:35;20.80;99.90
41876;DHT22;27555;50.808;4.402;2022-09-09T16:24:04;20.60;99.90
41876;DHT22;27555;50.808;4.402;2022-09-09T16:26:32;20.70;99.90
41876;DHT22;27555;50.808;4.402;2022-09-09T16:28:58;20.50;99.90
41876;DHT22;27555;50.808;4.402;2022-09-09T16:31:25;20.20;99.90
41876;DHT22;27555;50.808;4.402;2022-09-09T16:33:52;19.70;99.90
41876;DHT22;27555;50.808;4.402;2022-09-09T16:36:23;19.50;99.90
41876;DHT22;27555;50.808;4.402;2022-09-09T16:38:57;19.30;99.90
41876;DHT22;27555;50.808;4.402;2022-09-09T16:41:24;19.20;99.90
41876;DHT22;27555;50.808;4.402;2022-09-09T16:44:01;19.30;99.90
41876;DHT22;27555;50.808;4.402;2022-09-09T16:46:29;19.00;99.90
41876;DHT22;27555;50.808;4.402;2022-09-09T16:48:56;18.80;99.90
41876;DHT22;27555;50.808;4.402;2022-09-09T16:51:26;19.00;99.90
41876;DHT22;27555;50.808;4.402;2022-09-09T16:53:54;19.10;99.90
41876;DHT22;27555;50.808;4.402;2022-09-09T16:56:23;19.30;99.90
41876;DHT22;27555;50.808;4.402;2022-09-09T16:58:55;19.40;99.90
41876;DHT22;27555;50.808;4.402;2022-09-09T17:01:26;19.40;99.90
41876;DHT22;27555;50.808;4.402;2022-09-09T17:04:00;19.50;99.90
41876;DHT22;27555;50.808;4.402;2022-09-09T17:06:27;19.50;99.90
41876;DHT22;27555;50.808;4.402;2022-09-09T17:09:00;19.60;99.90
41876;DHT22;27555;50.808;4.402;2022-09-09T17:11:27;19.60;99.90
41876;DHT22;27555;50.808;4.402;2022-09-09T17:13:54;19.70;99.90
41876;DHT22;27555;50.808;4.402;2022-09-09T17:16:21;19.70;99.90
41876;DHT22;27555;50.808;4.402;2022-09-09T17:18:48;19.70;99.90
41876;DHT22;27555;50.808;4.402;2022-09-09T17:21:17;19.40;99.90
41876;DHT22;27555;50.808;4.402;2022-09-09T17:23:44;19.30;99.90
41876;DHT22;27555;50.808;4.402;2022-09-09T17:26:13;19.30;99.90
41876;DHT22;27555;50.808;4.402;2022-09-09T17:28:40;19.10;99.90
41876;DHT22;27555;50.808;4.402;2022-09-09T17:31:08;19.10;99.90
41876;DHT22;27555;50.808;4.402;2022-09-09T17:33:39;19.10;99.90
41876;DHT22;27555;50.808;4.402;2022-09-09T17:36:09;18.90;99.90
41876;DHT22;27555;50.808;4.402;2022-09-09T17:38:39;18.80;99.90
41876;DHT22;27555;50.808;4.402;2022-09-09T17:41:28;18.70;99.90
41876;DHT22;27555;50.808;4.402;2022-09-09T17:43:53;18.70;99.90
41876;DHT22;27555;50.808;4.402;2022-09-09T17:46:25;18.60;99.90
41876;DHT22;27555;50.808;4.402;2022-09-09T17:48:55;18.60;99.90
41876;DHT22;27555;50.808;4.402;2022-09-09T17:51:22;18.80;99.90